Terminal Aerodrome Forecast
Issued by NWS

Home | Current Version | Previous Version | Text Only | Print | Product List | Glossary On
Versions: 1 2 3 4 5 6 7 8 9 10 11 12 13 14 15 16 17 18 19 20 21 22 23 24
358
FTUS46 KSGX 151120
TAFSAN
TAF
KSAN 151120Z 1512/1618 VRB03KT P6SM SKC
     FM152000 30007KT P6SM SKC
     FM160100 VRB04KT P6SM FEW015 SCT250
     FM161500 VRB05KT P6SM BKN015=

USA.gov is the U.S. government's official web portal to all federal, state and local government web resources and services.